Smith Valley, Nevada Weather observations

Data are for 10 minute period ending at time listed.
 Day   Time   Solar   Ave.   Ave.  Ave.  Vector  Max.   Baro.   Total    
  of    of     Rad.   Air    Rel.  Wind   Wind   Wind  Press.  Precip.   
Year   Day            Temp.  Hum.  Speed  Dir.   Gust                    
2014   (PST)  Kw/m2    F      %     mph   deg.    mph    mb.     in.     
-------------------------------------------------------------------------
 330   14:50   0.26   70.1    15    3.2   355     4.7   858.5    0.00 
 330   15:00   0.26   70.1    15    3.1   332     5.8   858.6    0.00 
 330   15:10   0.22   69.9    15    3.4   344     4.9   858.6    0.00 
 330   15:20   0.17   69.7    15    2.4   348     3.3   858.6    0.00 
 330   15:30   0.14   68.9    16    3.2   332     4.0   858.7    0.00 
 330   15:40   100.00  99999.0   99999  99999.0   99999   99999.0   99999.0   99999.00 
 330   15:50   0.13   68.2    17    1.0    53     1.8   858.6    0.00 
 330   16:00   0.12   67.9    16    1.9   260     3.4   858.5    0.00 
 330   16:10   0.08   65.9    17    1.8   261     4.1   858.5    0.00 
 330   16:20   0.03   63.8    19    1.2   258     2.4   858.5    0.00 
 330   16:30   0.01   56.9    25    3.5   153     6.2   858.3    0.00 
 330   16:40   0.01   51.3    31    4.2   182     5.9   858.3    0.00 
 330   16:50   0.00   48.9    33    4.1   198     5.6   858.3    0.00 
 330   17:00   0.00   47.5    34    4.1   181     5.9   858.3    0.00 
 330   17:10   0.00   47.1    35    5.7   164     7.2   858.3    0.00 
 330   17:20   0.00   47.2    34    6.3   150     7.9   858.3    0.00 
 330   17:30   0.00   47.3    34    4.6   143     6.1   858.5    0.00 
 330   17:40   0.00   49.4    32    4.6   152     5.8   858.5    0.00 
 330   17:50   0.00   52.6    29    2.9   162     4.7   858.6    0.00 
 330   18:00   0.00   53.9    28    3.2   165     5.1   858.5    0.00 
 330   18:10   0.00   53.4    28    4.6   138     8.3   858.5    0.00 
 330   18:20   0.00   50.5    31    6.0   143     7.3   858.5    0.00 
 330   18:30   0.00   49.7    33    5.7   146     7.5   858.5    0.00 
 330   18:40   0.00   49.8    35    5.2   153     6.1   858.6    0.00 
 330   18:50   0.00   50.5    34    4.5   157     6.1   858.6    0.00 
 330   19:00   0.00   48.1    37    3.7   157     5.0   858.7    0.00 
 330   19:10   0.00   46.7    39    4.5   157     5.6   858.8    0.00 
 330   19:20   0.00   47.9    38    4.6   151     5.8   858.7    0.00 
 330   19:30   0.00   50.2    34    4.7   143     6.2   858.8    0.00 
 330   19:40   0.00   51.6    31    4.5   138     7.2   858.8    0.00 
 330   19:50   0.00   50.2    33    4.3   158     6.2   858.9    0.00 
 330   20:00   0.00   48.6    36    3.3   164     5.1   858.9    0.00 
 330   20:10   0.00   46.3    39    3.4   167     4.7   858.8    0.00 
 330   20:20   0.00   45.9    41    3.6   177     5.3   858.8    0.00 
 330   20:30   0.00   47.8    38    4.8   154     6.9   858.7    0.00 
 330   20:40   0.00   48.4    36    3.7   177     6.1   858.7    0.00 
 330   20:50   0.00   50.5    32    4.0   184     5.7   858.8    0.00 
 330   21:00   0.00   51.6    30    2.0   201     4.4   858.9    0.00 
 330   21:10   0.00   51.7    30    1.0   299     2.9   859.0    0.00 
 330   21:20   0.00   51.3    29    3.4    86     4.3   859.0    0.00 
 330   21:30   0.00   49.7    30    1.9    60     3.6   859.1    0.00 
 330   21:40   0.00   52.6    26    3.4   104     5.0   859.0    0.00 
 330   21:50   0.00   52.2    26    3.0   102     4.3   859.0    0.00 
 330   22:00   0.00   49.1    30    2.5   139     4.3   858.9    0.00 
 330   22:10   0.00   48.2    32    1.3   177     3.1   858.8    0.00 
 330   22:20   0.00   48.2    31    1.8   273     4.8   858.9    0.00 
 330   22:30   0.00   51.3    27    1.6    28     2.7   858.8    0.00 
 330   22:40   0.00   52.8    26    3.2    87     5.9   858.8    0.00 
 330   22:50   0.00   51.9    26    3.4    71     4.2   858.7    0.00 
 330   23:00   0.00   53.0    25    2.3    55     4.2   858.7    0.00 
 330   23:10   0.00   52.7    26    1.8    86     3.1   858.7    0.00 
 330   23:20   0.00   51.7    27    3.4   109     4.7   858.6    0.00 
 330   23:30   0.00   48.5    30    2.7   113     4.4   858.7    0.00 
 330   23:40   0.00   44.7    34    3.9   128     5.8   858.6    0.00 
 330   23:50   0.00   42.0    42    4.5   167     6.3   858.6    0.00 
 331    0:00   0.00   41.7    41    2.0   209     2.9   858.7    0.00 
 331    0:10   0.00   43.3    37    1.9   148     4.3   858.6    0.00 
 331    0:20   0.00   45.6    34    2.1   175     3.7   858.6    0.00 
 331    0:30   0.00   44.4    35    1.8   160     4.5   858.5    0.00 
 331    0:40   0.00   45.3    35    4.0   162     4.7   858.4    0.00 
 331    0:50   0.00   46.8    34    5.1   149     6.5   858.3    0.00 
 331    1:00   0.00   47.2    33    4.0   155     5.7   858.3    0.00 
 331    1:10   0.00   48.0    31    3.9   171     5.3   858.3    0.00 
 331    1:20   0.00   46.9    32    4.5   163     6.0   858.2    0.00 
 331    1:30   0.00   47.5    32    4.0   164     5.3   858.2    0.00 
 331    1:40   0.00   46.8    33    3.4   154     4.7   858.3    0.00 
 331    1:50   0.00   47.6    32    2.0   166     4.3   858.4    0.00 
 331    2:00   0.00   48.9    30    2.8   166     4.4   858.3    0.00 
 331    2:10   0.00   46.9    32    3.7   160     5.4   858.2    0.00 
 331    2:20   0.00   45.8    33    2.1   177     4.4   858.1    0.00 
 331    2:30   0.00   46.1    33    3.4   175     4.7   858.0    0.00 
 331    2:40   0.00   44.5    34    3.1   201     4.5   857.9    0.00 
 331    2:50   0.00   46.0    32    4.1   183     6.2   857.7    0.00 
 331    3:00   0.00   46.6    32    4.6   177     6.4   857.6    0.00 
 331    3:10   0.00   47.5    31    2.8   191     4.5   857.6    0.00 
 331    3:20   0.00   50.6    27    4.2   198     6.4   857.5    0.00 
 331    3:30   0.00   52.6    25    4.8   190     7.1   857.4    0.00 
 331    3:40   0.00   50.8    27    4.3   190     7.1   857.3    0.00 
 331    3:50   0.00   50.0    28    4.6   167     6.0   857.3    0.00 
 331    4:00   0.00   50.1    27    2.5   194     5.5   857.2    0.00 
 331    4:10   0.00   48.9    28    0.8   181     2.4   857.2    0.00 
 331    4:20   0.00   45.8    31    1.1    86     3.1   857.2    0.00 
 331    4:30   0.00   44.9    31    1.8   107     4.5   857.3    0.00 
 331    4:40   0.00   47.9    28    5.0   149     6.0   857.3    0.00 
 331    4:50   0.00   43.9    33    2.4   149     4.7   857.3    0.00 
 331    5:00   0.00   42.6    34    2.0   274     4.5   857.3    0.00 
 331    5:10   0.00   42.2    36    2.7   191     4.2   857.3    0.00 
 331    5:20   0.00   39.0    43    3.0   174     5.0   857.4    0.00 
 331    5:30   0.00   38.9    44    1.6   149     3.9   857.4    0.00 
 331    5:40   0.00   41.2    38    2.7    99     4.7   857.5    0.00 
 331    5:50   0.00   39.9    40    2.5   140     5.9   857.5    0.00 
 331    6:00   0.00   38.1    45    5.4   168     6.6   857.4    0.00 
 331    6:10   0.00   36.1    49    3.4   177     4.9   857.4    0.00 
 331    6:20   0.00   34.8    52    3.8   181     5.5   857.4    0.00 
 331    6:30   0.00   34.0    54    2.5   177     4.0   857.5    0.00 
 331    6:40   0.00   33.5    54    1.4   173     6.1   857.5    0.00 
 331    6:50   0.00   36.4    48    1.9   139     3.6   857.4    0.00 
 331    7:00   0.00   37.6    44    2.5   121     5.5   857.5    0.00 
 331    7:10   0.01   41.9    37    3.1    92     4.6   857.5    0.00 
 331    7:20   0.02   50.4    26    2.1    65     4.2   857.4    0.00 
 331    7:30   0.03   46.4    31    2.9   193     5.7   857.4    0.00 
 331    7:40   0.04   44.3    34    3.8   182     6.6   857.4    0.00 
 331    7:50   0.05   48.4    28    3.9   185     7.4   857.4    0.00 
 331    8:00   0.07   49.1    27    3.2   219     5.4   857.5    0.00 
 331    8:10   0.08   48.6    28    2.7   190     4.4   857.5    0.00 
 331    8:20   0.10   47.4    30    3.4   190     6.1   857.5    0.00 
 331    8:30   0.13   49.2    26    2.4   264     6.4   857.5    0.00 
 331    8:40   0.17   51.7    26    0.6   271     2.7   857.5    0.00 
 331    8:50   0.19   52.0    28    1.7   329     5.4   857.5    0.00 
 331    9:00   0.20   48.7    32    1.8   356     4.2   857.4    0.00 
 331    9:10   0.26   50.9    30    1.0   318     2.1   857.4    0.00 
 331    9:20   0.31   53.5    28    0.6   277     1.5   857.5    0.00 
 331    9:30   0.29   56.5    24    1.0   248     5.8   857.2    0.00 
 331    9:40   0.30   56.9    26    1.8   290     4.7   857.1    0.00 
 331    9:50   0.32   58.9    23    2.4   313     5.0   857.0    0.00 
 331   10:00   0.33   59.8    22    2.5   348     4.5   857.0    0.00 
 331   10:10   0.35   60.0    24    3.3   327     5.3   856.9    0.00 
 331   10:20   0.39   61.0    24    0.9   298     2.6   856.8    0.00 
 331   10:30   0.37   62.9    20    2.1   335     3.9   856.6    0.00 
 331   10:40   0.39   64.0    20    2.2     4     3.9   856.5    0.00 
 331   10:50   0.47   64.8    17    3.5    37     5.8   856.4    0.00 
 331   11:00   0.52   67.8    15    6.2   245    14.3   856.4    0.00 
 331   11:10   0.49   69.6    13    9.4   237    14.9   856.3    0.00 
 331   11:20   0.55   70.3    13    8.9   244    12.9   856.1    0.00 
 331   11:30   0.58   71.2    13   11.2   249    18.6   855.9    0.00 
 331   11:40   0.61   71.4    12   14.2   257    21.6   855.7    0.00 
 331   11:50   0.61   71.9    12   15.3   253    24.3   855.6    0.00 
 331   12:00   0.66   71.8    12   16.0   251    23.3   855.5    0.00 
 331   12:10   0.63   72.3    12   13.6   248    22.6   855.5    0.00 
 331   12:20   0.58   72.2    11   14.6   252    21.2   855.3    0.00 
 331   12:30   0.62   72.1    11   16.5   254    25.1   855.2    0.00 
 331   12:40   0.63   72.4    11   13.3   256    20.3   855.1    0.00 
 331   12:50   0.63   72.7    11   14.8   257    22.6   855.0    0.00 
 331   13:00   0.61   72.8    11   13.9   260    24.2   854.8    0.00 
 331   13:10   0.53   72.5    11   16.0   251    21.7   854.7    0.00 
 331   13:20   0.55   72.4    11   15.5   241    22.6   854.6    0.00 
 331   13:30   0.56   72.4    11   14.5   247    24.8   854.5    0.00 
 331   13:40   0.56   72.7    11   14.3   249    19.6   854.4    0.00 
 331   13:50   0.57   72.5    11   14.8   247    21.1   854.2    0.00 
 331   14:00   0.53   72.7    11   12.5   241    18.6   854.2    0.00 
 331   14:10   0.46   72.0    11   13.8   236    20.0   854.2    0.00 
 331   14:20   0.47   72.1    11   14.6   234    21.3   854.1    0.00 
 331   14:30   0.43   71.8    11   14.8   237    23.8   854.1    0.00 
 331   14:40   0.39   71.5    10   14.2   230    20.5   854.1    0.00 

Return to Smith Valley graphs page.


Western Regional Climate Center,wrcc@dri.edu